Time;durP1;ratioP1;P1;durP2;ratioP2;P2;SDS_P1;SDS_P2;PMS_P1;PMS_P2;Temp;Humidity;BMP_temperature;BMP_pressure;BME280_temperature;BME280_humidity;BME280_pressure;Samples;Min_cycle;Max_cycle;Signal;HPM_P1;HPM_P2
2022/10/17 00:00:53;;;;;;;17.15;15.35;;;17.40;99.90;;;;;;4592836;19;20349;-28
2022/10/17 00:02:38;;;;;;;14.75;13.30;;;17.40;99.90;;;;;;4593730;19;20007;-28
2022/10/17 00:04:09;;;;;;;17.25;13.77;;;17.40;99.90;;;;;;4595517;19;20349;-28
2022/10/17 00:05:41;;;;;;;16.13;14.35;;;17.40;99.90;;;;;;4593499;19;19999;-28
2022/10/17 00:07:12;;;;;;;16.98;14.07;;;17.40;99.90;;;;;;4593471;19;20002;-28
2022/10/17 00:08:44;;;;;;;15.45;13.80;;;17.40;99.90;;;;;;4592090;19;20023;-28
2022/10/17 00:10:15;;;;;;;18.38;15.90;;;17.40;99.90;;;;;;4592548;19;20078;-28
2022/10/17 00:11:46;;;;;;;22.40;18.55;;;17.40;99.90;;;;;;4593305;19;20058;-27
2022/10/17 00:13:17;;;;;;;32.60;24.60;;;17.40;99.90;;;;;;4593057;19;20010;-27
2022/10/17 00:14:48;;;;;;;45.65;31.77;;;17.40;99.90;;;;;;4593163;19;20009;-28
2022/10/17 00:16:37;;;;;;;51.45;36.30;;;17.40;99.90;;;;;;4592663;19;20467;-27
2022/10/17 00:18:09;;;;;;;50.17;34.97;;;17.40;99.90;;;;;;4592623;19;20346;-28
2022/10/17 00:19:40;;;;;;;40.70;28.65;;;17.40;99.90;;;;;;4592614;19;20035;-28
2022/10/17 00:21:15;;;;;;;39.03;26.58;;;17.40;99.90;;;;;;4591642;19;20017;-27
2022/10/17 00:22:46;;;;;;;38.88;26.40;;;17.40;99.90;;;;;;4592647;19;20011;-28
2022/10/17 00:24:17;;;;;;;37.25;26.85;;;17.30;99.90;;;;;;4593340;19;20472;-28
2022/10/17 00:25:57;;;;;;;39.65;27.33;;;17.40;99.90;;;;;;4592179;19;20002;-28
2022/10/17 00:27:28;;;;;;;35.47;25.58;;;17.40;99.90;;;;;;4591558;19;20390;-28
2022/10/17 00:29:00;;;;;;;34.08;24.48;;;17.30;99.90;;;;;;4592724;19;20018;-28
2022/10/17 00:30:31;;;;;;;35.72;24.90;;;17.30;99.90;;;;;;4593239;19;20073;-28
2022/10/17 00:32:02;;;;;;;;;;;17.30;99.90;;;;;;4592236;19;20041;-27
2022/10/17 00:33:34;;;;;;;30.00;22.20;;;17.30;99.90;;;;;;4592368;19;19914;-28
2022/10/17 00:35:06;;;;;;;26.92;19.75;;;17.40;99.90;;;;;;4593243;19;20417;-27
2022/10/17 00:36:37;;;;;;;;;;;17.30;99.90;;;;;;4594497;19;20203;-28
2022/10/17 00:38:08;;;;;;;21.15;15.63;;;17.30;99.90;;;;;;4591479;19;19927;-28
2022/10/17 00:39:39;;;;;;;18.63;15.30;;;17.30;99.90;;;;;;4591149;19;20021;-28
2022/10/17 00:41:11;;;;;;;19.98;15.82;;;17.30;99.90;;;;;;4592166;19;20015;-28
2022/10/17 00:42:42;;;;;;;18.05;15.13;;;17.30;99.90;;;;;;4591769;19;20011;-28
2022/10/17 00:44:29;;;;;;;;;;;17.30;99.90;;;;;;4593317;19;20361;-28
2022/10/17 00:46:00;;;;;;;18.30;15.02;;;17.30;99.90;;;;;;4591907;19;19945;-27
2022/10/17 00:47:31;;;;;;;20.95;16.02;;;17.30;99.90;;;;;;4593149;19;19998;-28
2022/10/17 00:49:07;;;;;;;19.20;15.27;;;17.30;99.90;;;;;;4592052;19;20378;-28
2022/10/17 00:50:39;;;;;;;18.42;14.77;;;17.30;99.90;;;;;;4591432;19;20014;-27
2022/10/17 00:52:16;;;;;;;16.67;14.07;;;17.30;99.90;;;;;;4590927;19;20031;-28
2022/10/17 00:53:48;;;;;;;18.38;14.98;;;17.30;99.90;;;;;;4591215;19;20006;-27
2022/10/17 00:55:24;;;;;;;17.77;13.90;;;17.30;99.90;;;;;;4590159;19;20027;-28
2022/10/17 00:56:55;;;;;;;17.10;13.38;;;17.30;99.90;;;;;;4590521;19;20018;-28
2022/10/17 00:58:27;;;;;;;16.02;13.00;;;17.30;99.90;;;;;;4591960;19;20042;-28
2022/10/17 00:59:58;;;;;;;19.38;13.90;;;17.30;99.90;;;;;;4592237;19;20356;-28
2022/10/17 01:01:29;;;;;;;19.85;13.75;;;17.30;99.90;;;;;;4592803;19;20345;-27
2022/10/17 01:03:00;;;;;;;17.20;13.05;;;17.30;99.90;;;;;;4591844;19;20354;-28
2022/10/17 01:04:32;;;;;;;18.15;13.77;;;17.30;99.90;;;;;;4592015;19;20011;-28
2022/10/17 01:06:03;;;;;;;15.70;12.75;;;17.30;99.90;;;;;;4590469;19;20038;-27
2022/10/17 01:07:34;;;;;;;16.77;12.77;;;17.30;99.90;;;;;;4591610;19;20364;-27
2022/10/17 01:09:05;;;;;;;15.30;12.93;;;17.30;99.90;;;;;;4590665;19;20405;-28
2022/10/17 01:10:54;;;;;;;16.20;12.55;;;17.30;99.90;;;;;;4591979;19;20031;-27
2022/10/17 01:13:02;;;;;;;13.75;11.55;;;17.30;99.90;;;;;;4590870;19;20033;-28
2022/10/17 01:14:57;;;;;;;17.60;13.15;;;17.30;99.90;;;;;;4590575;19;20018;-28
2022/10/17 01:16:44;;;;;;;17.08;13.45;;;17.30;99.90;;;;;;4592051;19;20455;-27
2022/10/17 01:18:20;;;;;;;15.65;13.05;;;17.30;99.90;;;;;;4592900;19;20006;-28
2022/10/17 01:20:22;;;;;;;14.82;12.52;;;17.30;99.90;;;;;;4591612;19;20052;-27
2022/10/17 01:22:02;;;;;;;13.68;11.70;;;17.30;99.90;;;;;;4590692;19;20014;-28
2022/10/17 01:23:51;;;;;;;13.88;11.65;;;17.30;99.90;;;;;;4590380;19;20006;-28
2022/10/17 01:25:26;;;;;;;13.52;12.10;;;17.30;99.90;;;;;;4591446;19;20025;-27
2022/10/17 01:27:15;;;;;;;13.43;11.77;;;17.30;99.90;;;;;;4590454;19;20014;-28
2022/10/17 01:29:05;;;;;;;14.88;11.45;;;17.30;99.90;;;;;;4591794;19;20356;-28
2022/10/17 01:30:45;;;;;;;13.85;11.18;;;17.30;99.90;;;;;;4592361;19;20003;-27
2022/10/17 01:32:28;;;;;;;13.38;11.13;;;17.30;99.90;;;;;;4591219;19;20095;-27
2022/10/17 01:34:06;;;;;;;13.98;11.50;;;17.30;99.90;;;;;;4590508;19;20044;-27
2022/10/17 01:35:42;;;;;;;15.30;12.18;;;17.30;99.90;;;;;;4591452;19;20092;-28
2022/10/17 01:37:25;;;;;;;14.48;12.02;;;17.30;99.90;;;;;;4591121;19;19999;-27
2022/10/17 01:39:33;;;;;;;13.80;11.90;;;17.30;99.90;;;;;;4590596;19;20543;-27
2022/10/17 01:41:22;;;;;;;14.30;12.18;;;17.30;99.90;;;;;;4591617;19;20010;-28
2022/10/17 01:43:14;;;;;;;14.00;12.40;;;17.30;99.90;;;;;;4590052;19;20015;-28
2022/10/17 01:45:02;;;;;;;14.40;11.98;;;17.30;99.90;;;;;;4591234;19;20038;-28
2022/10/17 01:46:38;;;;;;;13.48;11.43;;;17.30;99.90;;;;;;4589075;19;20011;-27
2022/10/17 01:48:15;;;;;;;13.18;11.57;;;17.30;99.90;;;;;;4590486;19;20013;-28
2022/10/17 01:49:46;;;;;;;14.13;11.90;;;17.30;99.90;;;;;;4590543;19;20074;-28
2022/10/17 01:51:23;;;;;;;12.80;10.63;;;17.30;99.90;;;;;;4590167;19;19999;-28
2022/10/17 01:53:00;;;;;;;14.30;11.43;;;17.30;99.90;;;;;;4590781;19;20014;-27
2022/10/17 01:54:34;;;;;;;14.30;11.18;;;17.30;99.90;;;;;;4589485;19;20019;-28
2022/10/17 01:56:06;;;;;;;12.75;10.90;;;17.30;99.90;;;;;;4590337;19;20006;-27
2022/10/17 01:57:47;;;;;;;14.85;11.77;;;17.30;99.90;;;;;;4589606;19;20445;-28
2022/10/17 01:59:47;;;;;;;14.25;10.90;;;17.30;99.90;;;;;;4589533;19;20365;-28
2022/10/17 02:01:18;;;;;;;13.15;10.80;;;17.30;99.90;;;;;;4588803;19;20373;-28
2022/10/17 02:02:53;;;;;;;12.23;10.85;;;17.30;99.90;;;;;;4589922;19;20014;-28
2022/10/17 02:04:24;;;;;;;11.40;10.20;;;17.30;99.90;;;;;;4589953;19;20014;-27
2022/10/17 02:05:56;;;;;;;12.38;9.95;;;17.30;99.90;;;;;;4589368;19;20014;-28
2022/10/17 02:07:27;;;;;;;11.90;10.18;;;17.30;99.90;;;;;;4590393;19;20353;-28
2022/10/17 02:08:58;;;;;;;10.50;9.40;;;17.30;99.90;;;;;;4591259;19;20011;-27
2022/10/17 02:10:32;;;;;;;10.60;9.50;;;17.30;99.90;;;;;;4591437;19;20074;-27
2022/10/17 02:12:25;;;;;;;13.25;9.80;;;17.20;99.90;;;;;;4590461;19;20045;-27
2022/10/17 02:14:18;;;;;;;10.85;9.35;;;17.30;99.90;;;;;;4590533;19;20018;-28
2022/10/17 02:16:04;;;;;;;11.20;9.50;;;17.30;99.90;;;;;;4589605;19;20036;-27
2022/10/17 02:17:35;;;;;;;13.63;9.43;;;17.40;99.90;;;;;;4589270;19;20031;-28
2022/10/17 02:19:25;;;;;;;10.60;9.55;;;17.50;99.90;;;;;;4593539;19;20006;-27
2022/10/17 02:21:02;;;;;;;12.93;9.57;;;17.60;99.90;;;;;;4589306;19;20066;-28
2022/10/17 02:22:51;;;;;;;10.02;9.00;;;17.60;99.90;;;;;;4589777;19;20377;-27
2022/10/17 02:24:56;;;;;;;10.45;8.82;;;17.70;99.90;;;;;;4590097;19;20073;-27
2022/10/17 02:26:32;;;;;;;10.35;9.02;;;17.70;99.90;;;;;;4588987;19;20014;-27
2022/10/17 02:28:14;;;;;;;10.57;9.48;;;17.60;99.90;;;;;;4588125;19;20014;-27
2022/10/17 02:29:49;;;;;;;11.63;9.27;;;17.60;99.90;;;;;;4587602;19;20062;-28
2022/10/17 02:31:29;;;;;;;10.57;9.48;;;17.60;99.90;;;;;;4589311;19;20014;-28
2022/10/17 02:33:04;;;;;;;11.55;10.10;;;17.60;99.90;;;;;;4589442;19;20472;-28
2022/10/17 02:34:40;;;;;;;12.43;9.73;;;17.60;99.90;;;;;;4588825;19;20011;-28
2022/10/17 02:36:18;;;;;;;12.25;10.13;;;17.60;99.90;;;;;;4589083;19;20017;-28
2022/10/17 02:37:49;;;;;;;11.68;10.18;;;17.60;99.90;;;;;;4589585;19;20007;-28
2022/10/17 02:39:21;;;;;;;10.65;9.25;;;17.60;99.90;;;;;;4589526;19;20345;-27
2022/10/17 02:40:52;;;;;;;10.95;9.20;;;17.60;99.90;;;;;;4588848;19;20022;-27
2022/10/17 02:42:23;;;;;;;11.32;9.48;;;17.60;99.90;;;;;;4588874;19;20007;-28
2022/10/17 02:43:54;;;;;;;10.98;9.85;;;17.60;99.90;;;;;;4587333;19;20003;-27
2022/10/17 02:45:26;;;;;;;10.25;9.20;;;17.60;99.90;;;;;;4588926;19;20391;-27
2022/10/17 02:47:10;;;;;;;10.82;9.20;;;17.60;99.90;;;;;;4587842;19;20469;-27
2022/10/17 02:48:43;;;;;;;11.68;10.45;;;17.60;99.90;;;;;;4589130;19;20460;-27
2022/10/17 02:50:15;;;;;;;11.52;10.32;;;17.50;99.90;;;;;;4589339;19;20464;-28
2022/10/17 02:52:00;;;;;;;13.85;10.82;;;17.60;99.90;;;;;;4589094;19;20002;-28
2022/10/17 02:53:47;;;;;;;15.02;11.82;;;17.60;99.90;;;;;;4589500;19;20010;-27
2022/10/17 02:55:21;;;;;;;11.55;9.82;;;17.50;99.90;;;;;;4587969;19;20027;-27
2022/10/17 02:56:58;;;;;;;12.55;10.02;;;17.50;99.90;;;;;;4588748;19;20011;-28
2022/10/17 02:58:32;;;;;;;12.50;10.43;;;17.50;99.90;;;;;;4589423;19;20031;-27
2022/10/17 03:00:06;;;;;;;14.77;11.57;;;17.50;99.90;;;;;;4588824;19;20020;-28
2022/10/17 03:01:37;;;;;;;14.15;10.52;;;17.50;99.90;;;;;;4588604;19;20016;-27
2022/10/17 03:03:25;;;;;;;12.98;10.55;;;17.50;99.90;;;;;;4590966;19;20006;-28
2022/10/17 03:04:57;;;;;;;11.90;10.55;;;17.50;99.90;;;;;;4588577;19;20196;-28
2022/10/17 03:06:28;;;;;;;12.15;10.23;;;17.50;99.90;;;;;;4589329;19;20381;-28
2022/10/17 03:07:59;;;;;;;11.60;10.07;;;17.50;99.90;;;;;;4588616;19;20365;-28
2022/10/17 03:09:30;;;;;;;11.90;10.70;;;17.50;99.90;;;;;;4589248;19;20419;-27
2022/10/17 03:11:01;;;;;;;11.77;10.27;;;17.50;99.90;;;;;;4590259;19;20098;-28
2022/10/17 03:12:32;;;;;;;12.23;10.18;;;17.50;99.90;;;;;;4589553;19;20009;-28
2022/10/17 03:14:04;;;;;;;11.50;10.30;;;17.50;99.90;;;;;;4589652;19;20014;-27
2022/10/17 03:15:35;;;;;;;12.68;11.18;;;17.50;99.90;;;;;;4589069;19;20031;-28
2022/10/17 03:17:06;;;;;;;11.52;9.75;;;17.50;99.90;;;;;;4594701;19;20009;-27
2022/10/17 03:18:37;;;;;;;11.82;10.57;;;17.50;99.90;;;;;;4593041;19;20025;-28
2022/10/17 03:20:09;;;;;;;12.60;10.82;;;17.50;99.90;;;;;;4593520;19;20049;-28
2022/10/17 03:21:40;;;;;;;;;;;17.50;99.90;;;;;;4593906;19;20485;-27
2022/10/17 03:23:12;;;;;;;;;;;17.50;99.90;;;;;;4594605;19;19927;-27
2022/10/17 03:24:43;;;;;;;12.73;11.23;;;17.50;99.90;;;;;;4593068;19;20321;-27
2022/10/17 03:26:14;;;;;;;12.93;10.65;;;17.50;99.90;;;;;;4592042;19;20092;-27
2022/10/17 03:27:45;;;;;;;12.15;10.88;;;17.50;99.90;;;;;;4593795;19;20101;-28
2022/10/17 03:29:16;;;;;;;12.48;11.20;;;17.50;99.90;;;;;;4593520;19;20495;-28
2022/10/17 03:30:47;;;;;;;13.02;10.70;;;17.50;99.90;;;;;;4593418;19;20003;-27
2022/10/17 03:32:19;;;;;;;12.77;11.48;;;17.50;99.90;;;;;;4594367;19;20011;-27
2022/10/17 03:33:50;;;;;;;14.43;12.32;;;17.50;99.90;;;;;;4594677;19;20021;-28
2022/10/17 03:35:21;;;;;;;14.27;12.43;;;17.50;99.90;;;;;;4593829;19;20035;-27
2022/10/17 03:36:52;;;;;;;15.25;13.65;;;17.50;99.90;;;;;;4592684;19;20011;-27
2022/10/17 03:38:23;;;;;;;16.50;13.45;;;17.40;99.90;;;;;;4593827;19;20005;-28
2022/10/17 03:39:54;;;;;;;15.95;14.20;;;17.50;99.90;;;;;;4594192;19;20015;-28
2022/10/17 03:41:25;;;;;;;14.00;12.60;;;17.50;99.90;;;;;;4593569;19;20476;-27
2022/10/17 03:42:56;;;;;;;13.10;11.50;;;17.40;99.90;;;;;;4594389;19;20011;-27
2022/10/17 03:44:27;;;;;;;14.05;12.32;;;17.40;99.90;;;;;;4594228;19;20014;-28
2022/10/17 03:45:59;;;;;;;13.68;12.27;;;17.50;99.90;;;;;;4593422;19;20010;-28
2022/10/17 03:47:30;;;;;;;13.98;12.45;;;17.50;99.90;;;;;;4593726;19;20357;-28
2022/10/17 03:49:01;;;;;;;13.65;11.95;;;17.50;99.90;;;;;;4594045;19;20027;-27
2022/10/17 03:50:32;;;;;;;13.38;11.40;;;17.50;99.90;;;;;;4594576;19;19995;-27
2022/10/17 03:52:04;;;;;;;12.93;11.63;;;17.40;99.90;;;;;;4592358;19;20010;-28
2022/10/17 03:53:35;;;;;;;12.70;11.27;;;17.40;99.90;;;;;;4593306;19;20011;-28
2022/10/17 03:55:06;;;;;;;14.73;12.88;;;17.50;99.90;;;;;;4593250;19;20489;-27
2022/10/17 03:56:37;;;;;;;13.93;12.45;;;17.40;99.90;;;;;;4594135;19;20018;-27
2022/10/17 03:58:08;;;;;;;13.20;11.80;;;17.50;99.90;;;;;;4591639;19;20011;-28
2022/10/17 03:59:40;;;;;;;13.25;11.65;;;17.50;99.90;;;;;;4595317;19;20018;-27
2022/10/17 04:01:12;;;;;;;13.50;12.10;;;17.40;99.90;;;;;;4593355;19;20007;-28
2022/10/17 04:02:43;;;;;;;12.80;11.50;;;17.40;99.90;;;;;;4594081;19;20015;-28
2022/10/17 04:04:15;;;;;;;12.95;11.43;;;17.40;99.90;;;;;;4593494;19;20012;-27
2022/10/17 04:05:46;;;;;;;13.38;11.80;;;17.50;99.90;;;;;;4592849;19;20010;-27
2022/10/17 04:07:17;;;;;;;14.52;12.25;;;17.50;99.90;;;;;;4593517;19;20529;-27
2022/10/17 04:08:50;;;;;;;14.63;11.73;;;17.50;99.90;;;;;;4593229;19;20014;-28
2022/10/17 04:10:21;;;;;;;14.13;11.60;;;17.50;99.90;;;;;;4593180;19;20010;-28
2022/10/17 04:11:52;;;;;;;18.77;16.92;;;17.50;99.90;;;;;;4593298;19;20020;-27
2022/10/17 04:13:23;;;;;;;21.55;19.33;;;17.50;99.90;;;;;;4593862;19;20018;-28
2022/10/17 04:14:56;;;;;;;22.40;20.02;;;17.50;99.90;;;;;;4593269;19;20011;-28
2022/10/17 04:16:27;;;;;;;21.05;18.95;;;17.50;99.90;;;;;;4593040;19;20524;-28
2022/10/17 04:17:58;;;;;;;;;;;17.50;99.90;;;;;;4593127;19;20017;-28
2022/10/17 04:19:29;;;;;;;20.85;18.52;;;17.50;99.90;;;;;;4593140;19;19919;-27
2022/10/17 04:21:03;;;;;;;21.45;19.33;;;17.50;99.90;;;;;;4591750;19;20011;-28
2022/10/17 04:22:35;;;;;;;20.40;18.27;;;17.50;99.90;;;;;;4592683;19;20014;-27
2022/10/17 04:24:07;;;;;;;21.23;18.92;;;17.50;99.90;;;;;;4592172;19;20065;-27
2022/10/17 04:25:38;;;;;;;20.50;18.40;;;17.50;99.90;;;;;;4592036;19;20018;-28
2022/10/17 04:27:10;;;;;;;19.98;17.90;;;17.50;99.90;;;;;;4589262;19;20030;-28
2022/10/17 04:28:41;;;;;;;17.45;15.60;;;17.50;99.90;;;;;;4592437;19;20034;-28
2022/10/17 04:30:12;;;;;;;15.57;13.98;;;17.50;99.90;;;;;;4593278;19;20010;-28
2022/10/17 04:31:44;;;;;;;15.73;14.05;;;17.50;99.90;;;;;;4591751;19;20065;-27
2022/10/17 04:33:14;;;;;;;16.35;14.52;;;17.50;99.90;;;;;;4592478;19;20018;-28
2022/10/17 04:34:49;;;;;;;17.63;14.40;;;17.50;99.90;;;;;;4592684;19;20015;-27
2022/10/17 04:36:21;;;;;;;13.52;12.10;;;17.50;99.90;;;;;;4592917;19;20367;-28
2022/10/17 04:37:53;;;;;;;14.88;13.10;;;17.40;99.90;;;;;;4591212;19;20066;-27
2022/10/17 04:39:24;;;;;;;17.85;14.02;;;17.50;99.90;;;;;;4592254;19;20022;-28
2022/10/17 04:41:02;;;;;;;17.92;14.35;;;17.50;99.90;;;;;;4593361;19;20011;-27
2022/10/17 04:42:33;;;;;;;15.93;13.75;;;17.50;99.90;;;;;;4591372;19;20431;-28
2022/10/17 04:44:04;;;;;;;17.42;14.00;;;17.50;99.90;;;;;;4591934;19;20066;-28
2022/10/17 04:45:35;;;;;;;18.05;13.25;;;17.50;99.90;;;;;;4592196;19;20476;-28
2022/10/17 04:47:07;;;;;;;17.58;14.18;;;17.50;99.90;;;;;;4590984;19;20006;-27
2022/10/17 04:48:38;;;;;;;16.73;13.43;;;17.50;99.90;;;;;;4592538;19;20006;-27
2022/10/17 04:50:09;;;;;;;16.42;13.38;;;17.40;99.90;;;;;;4592210;19;20011;-28
2022/10/17 04:51:41;;;;;;;15.98;13.65;;;17.40;99.90;;;;;;4592127;19;20084;-28
2022/10/17 04:53:12;;;;;;;17.63;13.93;;;17.40;99.90;;;;;;4592794;19;20002;-28
2022/10/17 04:54:43;;;;;;;15.95;14.27;;;17.40;99.90;;;;;;4592623;19;20014;-27
2022/10/17 04:56:19;;;;;;;16.45;14.50;;;17.40;99.90;;;;;;4590691;19;20011;-27
2022/10/17 04:57:50;;;;;;;17.67;14.55;;;17.40;99.90;;;;;;4590738;19;20024;-28
2022/10/17 04:59:21;;;;;;;17.52;14.65;;;17.40;99.90;;;;;;4592965;19;20020;-27
2022/10/17 05:00:52;;;;;;;15.82;14.18;;;17.50;99.90;;;;;;4593127;19;20009;-27
2022/10/17 05:02:23;;;;;;;15.55;13.85;;;17.40;99.90;;;;;;4592378;19;20018;-27
2022/10/17 05:03:55;;;;;;;15.07;13.48;;;17.50;99.90;;;;;;4592372;19;20011;-27
2022/10/17 05:05:26;;;;;;;16.80;13.50;;;17.50;99.90;;;;;;4592432;19;20483;-27
2022/10/17 05:06:57;;;;;;;18.15;14.75;;;17.60;99.90;;;;;;4589511;19;20471;-28
2022/10/17 05:08:28;;;;;;;16.27;14.07;;;17.60;99.90;;;;;;4591554;19;20019;-27
2022/10/17 05:10:00;;;;;;;17.85;14.18;;;17.70;99.90;;;;;;4592102;19;20472;-27
2022/10/17 05:11:32;;;;;;;15.63;13.77;;;17.80;99.90;;;;;;4590903;19;20050;-28
2022/10/17 05:13:03;;;;;;;16.30;14.43;;;17.80;99.90;;;;;;4591440;19;20021;-27
2022/10/17 05:14:34;;;;;;;17.85;15.13;;;17.90;99.90;;;;;;4591693;19;20047;-27
2022/10/17 05:16:05;;;;;;;17.75;15.43;;;17.90;99.90;;;;;;4592026;19;20421;-27
2022/10/17 05:17:36;;;;;;;;;;;18.00;99.90;;;;;;4593045;19;20011;-27
2022/10/17 05:19:07;;;;;;;18.60;15.18;;;18.10;99.90;;;;;;4591830;19;20371;-28
2022/10/17 05:20:38;;;;;;;19.67;16.15;;;18.20;99.90;;;;;;4589142;19;20017;-27
2022/10/17 05:22:10;;;;;;;18.00;15.13;;;18.20;99.90;;;;;;4591154;19;20015;-28
2022/10/17 05:23:41;;;;;;;19.10;14.73;;;18.20;99.90;;;;;;4591463;19;20010;-28
2022/10/17 05:25:12;;;;;;;20.15;15.70;;;18.20;99.90;;;;;;4590505;19;20010;-28
2022/10/17 05:26:43;;;;;;;19.10;15.57;;;18.20;99.90;;;;;;4590213;19;20003;-27
2022/10/17 05:28:14;;;;;;;17.80;15.00;;;18.20;99.90;;;;;;4592609;19;20006;-27
2022/10/17 05:29:45;;;;;;;17.25;15.45;;;18.20;99.90;;;;;;4588816;19;20015;-28
2022/10/17 05:31:17;;;;;;;15.60;13.93;;;18.20;99.90;;;;;;4590634;19;20039;-27
2022/10/17 05:32:51;;;;;;;16.15;11.00;;;18.20;99.90;;;;;;4590683;19;20002;-28
2022/10/17 05:34:23;;;;;;;16.83;14.95;;;18.20;99.90;;;;;;4591017;19;20420;-27
2022/10/17 05:35:55;;;;;;;17.95;14.77;;;18.30;99.90;;;;;;4590403;19;20549;-28
2022/10/17 05:37:28;;;;;;;16.92;15.05;;;18.30;99.90;;;;;;4590948;19;20010;-28
2022/10/17 05:38:59;;;;;;;17.75;15.02;;;18.20;99.90;;;;;;4589338;19;20021;-28
2022/10/17 05:40:30;;;;;;;18.35;15.40;;;18.20;99.90;;;;;;4590458;19;20006;-27
2022/10/17 05:42:01;;;;;;;18.25;15.65;;;18.20;99.90;;;;;;4590410;19;20418;-28
2022/10/17 05:43:35;;;;;;;17.13;15.32;;;18.10;99.90;;;;;;4589857;19;20082;-28
2022/10/17 05:45:06;;;;;;;16.75;15.05;;;18.10;99.90;;;;;;4591666;19;20031;-28
2022/10/17 05:46:38;;;;;;;17.10;14.80;;;18.10;99.90;;;;;;4590230;19;20017;-28
2022/10/17 05:48:10;;;;;;;17.42;15.60;;;18.10;99.90;;;;;;4588709;19;20087;-28
2022/10/17 05:49:41;;;;;;;18.10;15.23;;;18.10;99.90;;;;;;4589538;19;20022;-28
2022/10/17 05:51:12;;;;;;;18.40;14.57;;;18.10;99.90;;;;;;4590226;19;20006;-28
2022/10/17 05:52:43;;;;;;;17.83;14.90;;;18.10;99.90;;;;;;4592683;19;20006;-28
2022/10/17 05:54:14;;;;;;;17.83;15.80;;;18.10;99.90;;;;;;4590143;19;20035;-28
2022/10/17 05:55:53;;;;;;;20.17;17.35;;;18.10;99.90;;;;;;4589088;19;20380;-28
2022/10/17 05:57:25;;;;;;;17.80;15.93;;;18.10;99.90;;;;;;4590618;19;20046;-27
2022/10/17 05:58:56;;;;;;;21.65;15.38;;;18.10;99.90;;;;;;4591010;19;20342;-28
2022/10/17 06:00:27;;;;;;;17.98;15.18;;;18.00;99.90;;;;;;4591114;19;20022;-27
2022/10/17 06:01:58;;;;;;;17.63;15.10;;;18.10;99.90;;;;;;4591203;19;20037;-28
2022/10/17 06:03:30;;;;;;;20.00;14.95;;;18.10;99.90;;;;;;4591122;19;20014;-28
2022/10/17 06:05:01;;;;;;;16.60;14.85;;;18.10;99.90;;;;;;4590858;19;20035;-28
2022/10/17 06:06:36;;;;;;;16.58;14.00;;;18.10;99.90;;;;;;4590263;19;20479;-27
2022/10/17 06:08:08;;;;;;;16.50;14.23;;;18.10;99.90;;;;;;4590466;19;20006;-27
2022/10/17 06:09:39;;;;;;;15.02;13.43;;;18.10;99.90;;;;;;4590689;19;20002;-27
2022/10/17 06:11:10;;;;;;;18.15;14.25;;;18.10;99.90;;;;;;4590647;19;20010;-27
2022/10/17 06:12:42;;;;;;;15.38;13.63;;;18.10;99.90;;;;;;4589674;19;20026;-27
2022/10/17 06:14:13;;;;;;;15.88;14.13;;;18.10;99.90;;;;;;4590933;19;20010;-28
2022/10/17 06:15:45;;;;;;;16.48;13.63;;;18.10;99.90;;;;;;4589418;19;20352;-26
2022/10/17 06:17:16;;;;;;;15.52;13.88;;;18.10;99.90;;;;;;4589914;19;20026;-26
2022/10/17 06:18:47;;;;;;;15.25;13.48;;;18.20;99.90;;;;;;4590689;19;20015;-26
2022/10/17 06:20:18;;;;;;;16.17;14.40;;;18.10;99.90;;;;;;4591414;19;20007;-26
2022/10/17 06:21:50;;;;;;;15.30;12.88;;;18.10;99.90;;;;;;4588915;19;20021;-25
2022/10/17 06:23:21;;;;;;;14.27;12.75;;;18.10;99.90;;;;;;4590302;19;20018;-26
2022/10/17 06:24:54;;;;;;;17.27;13.70;;;18.10;99.90;;;;;;4588877;19;20010;-25
2022/10/17 06:26:26;;;;;;;14.88;12.52;;;18.10;99.90;;;;;;4589348;19;20361;-26
2022/10/17 06:27:58;;;;;;;16.55;13.48;;;18.10;99.90;;;;;;4589236;19;20010;-25
2022/10/17 06:29:29;;;;;;;13.40;11.98;;;18.10;99.90;;;;;;4589405;19;20021;-26
2022/10/17 06:31:11;;;;;;;16.02;12.35;;;18.10;99.90;;;;;;4590602;19;20013;-25
2022/10/17 06:32:42;;;;;;;14.88;12.75;;;18.10;99.90;;;;;;4589129;19;20374;-25
2022/10/17 06:34:13;;;;;;;17.55;13.75;;;18.10;99.90;;;;;;4587578;19;20039;-26
2022/10/17 06:35:54;;;;;;;16.02;13.30;;;18.10;99.90;;;;;;4587131;19;20006;-28
2022/10/17 06:37:25;;;;;;;17.65;14.98;;;18.10;99.90;;;;;;4589491;19;20018;-25
2022/10/17 06:38:56;;;;;;;21.08;16.85;;;18.00;99.90;;;;;;4588461;19;20011;-25
2022/10/17 06:40:29;;;;;;;22.15;19.00;;;18.00;99.90;;;;;;4588668;19;20014;-25
2022/10/17 06:42:00;;;;;;;21.25;18.90;;;17.90;99.90;;;;;;4589428;19;20014;-26
2022/10/17 06:43:31;;;;;;;23.15;20.65;;;17.90;99.90;;;;;;4588878;19;20044;-25
2022/10/17 06:45:04;;;;;;;23.63;20.50;;;17.90;99.90;;;;;;4589147;19;20018;-25
2022/10/17 06:46:38;;;;;;;23.52;19.85;;;17.90;99.90;;;;;;4588699;19;20014;-25
2022/10/17 06:48:09;;;;;;;24.00;20.38;;;17.90;99.90;;;;;;4589358;19;20058;-25
2022/10/17 06:49:41;;;;;;;23.23;19.15;;;17.80;99.90;;;;;;4589211;19;20489;-25
2022/10/17 06:51:15;;;;;;;21.67;19.33;;;17.90;99.90;;;;;;4588920;19;20014;-25
2022/10/17 06:52:50;;;;;;;20.63;18.40;;;17.80;99.90;;;;;;4588242;19;20031;-25
2022/10/17 06:54:24;;;;;;;20.58;18.17;;;17.80;99.90;;;;;;4587846;19;20023;-26
2022/10/17 06:56:00;;;;;;;19.73;17.63;;;17.80;99.90;;;;;;4588995;19;20014;-26
2022/10/17 06:57:34;;;;;;;18.50;16.60;;;17.80;99.90;;;;;;4589163;19;20493;-26
2022/10/17 06:59:06;;;;;;;20.13;17.17;;;17.80;99.90;;;;;;4588588;19;20094;-26
2022/10/17 07:00:37;;;;;;;20.42;17.70;;;17.80;99.90;;;;;;4588939;19;20010;-26
2022/10/17 07:02:09;;;;;;;18.75;16.80;;;17.80;99.90;;;;;;4587378;19;20049;-26
2022/10/17 07:03:42;;;;;;;19.48;16.98;;;17.80;99.90;;;;;;4588587;19;20044;-26
2022/10/17 07:05:18;;;;;;;18.98;16.95;;;17.80;99.90;;;;;;4588419;19;20552;-26
2022/10/17 07:06:49;;;;;;;19.25;16.73;;;17.80;99.90;;;;;;4588299;19;20011;-26
2022/10/17 07:08:25;;;;;;;18.45;16.15;;;17.70;99.90;;;;;;4589030;19;20010;-26
2022/10/17 07:09:56;;;;;;;19.17;16.58;;;17.70;99.90;;;;;;4589077;19;20480;-26
2022/10/17 07:11:31;;;;;;;19.42;17.30;;;17.80;99.90;;;;;;4589157;19;20010;-26
2022/10/17 07:13:02;;;;;;;;;;;17.80;99.90;;;;;;4590713;19;20025;-26
2022/10/17 07:14:34;;;;;;;20.55;18.35;;;17.70;99.90;;;;;;4589019;19;19911;-27
2022/10/17 07:16:09;;;;;;;19.23;16.80;;;17.70;99.90;;;;;;4588004;19;20014;-26
2022/10/17 07:17:43;;;;;;;19.35;17.35;;;17.80;99.90;;;;;;4588100;19;20011;-26
2022/10/17 07:19:14;;;;;;;20.45;17.67;;;17.80;99.90;;;;;;4588752;19;20015;-26
2022/10/17 07:20:52;;;;;;;19.48;17.02;;;17.80;99.90;;;;;;4589320;19;20030;-26
2022/10/17 07:22:24;;;;;;;18.73;15.98;;;17.70;99.90;;;;;;4588119;19;20015;-26
2022/10/17 07:23:55;;;;;;;19.65;17.55;;;17.80;99.90;;;;;;4588528;19;20014;-26
2022/10/17 07:25:27;;;;;;;21.98;18.23;;;17.70;99.90;;;;;;4587888;19;20014;-26
2022/10/17 07:26:58;;;;;;;19.48;17.52;;;17.80;99.90;;;;;;4587486;19;20018;-26
2022/10/17 07:28:29;;;;;;;23.60;19.55;;;17.80;99.90;;;;;;4588045;19;20074;-26
2022/10/17 07:30:01;;;;;;;19.17;16.92;;;17.70;99.90;;;;;;4588600;19;20062;-26
2022/10/17 07:31:32;;;;;;;;;;;17.80;99.90;;;;;;4589342;19;20026;-26
2022/10/17 07:33:04;;;;;;;21.38;18.65;;;17.80;99.90;;;;;;4586942;19;19921;-26
2022/10/17 07:34:35;;;;;;;20.73;18.30;;;17.70;99.90;;;;;;4588299;19;20021;-26
2022/10/17 07:36:07;;;;;;;20.90;18.08;;;17.80;99.90;;;;;;4589453;19;20477;-26
2022/10/17 07:37:38;;;;;;;;;;;17.70;99.90;;;;;;4589579;19;20015;-26
2022/10/17 07:39:09;;;;;;;22.10;19.10;;;17.80;99.90;;;;;;4588249;19;19911;-26
2022/10/17 07:40:41;;;;;;;21.80;18.48;;;17.70;99.90;;;;;;4589294;19;20039;-26
2022/10/17 07:42:15;;;;;;;19.13;17.23;;;17.80;99.90;;;;;;4589122;19;20013;-26
2022/10/17 07:43:46;;;;;;;22.08;18.50;;;17.70;99.90;;;;;;4587719;19;20436;-26
2022/10/17 07:45:18;;;;;;;22.52;17.98;;;17.80;99.90;;;;;;4588704;19;20010;-26
2022/10/17 07:46:50;;;;;;;21.73;19.10;;;17.70;99.90;;;;;;4588275;19;20006;-26
2022/10/17 07:48:22;;;;;;;20.77;18.48;;;17.80;99.90;;;;;;4589174;19;20014;-26
2022/10/17 07:49:53;;;;;;;20.35;17.58;;;17.80;99.90;;;;;;4587578;19;20094;-26
2022/10/17 07:51:24;;;;;;;19.95;17.15;;;17.80;99.90;;;;;;4587760;19;20078;-26
2022/10/17 07:52:55;;;;;;;20.20;18.10;;;17.70;99.90;;;;;;4589096;19;20010;-26
2022/10/17 07:54:27;;;;;;;;;;;17.80;99.90;;;;;;4588389;19;20106;-26
2022/10/17 07:56:09;;;;;;;19.13;17.10;;;17.80;99.90;;;;;;4586715;19;19914;-26
2022/10/17 07:57:41;;;;;;;18.77;16.88;;;17.80;99.90;;;;;;4586014;19;20010;-26
2022/10/17 07:59:14;;;;;;;21.75;18.90;;;17.80;99.90;;;;;;4587605;19;20014;-26